Meteo Giornale » Osservazioni meteo Italia » Brescia-Montichiari

ore: 16:50 - Osservazioni Meteo Brescia-Montichiari
Lat. 45° 24' N Lon. 10° 18' E Alt. 104 metri s.l.m.

sereno Europe/Rome

8 °C

Sereno

Temp. 24 Ore

-4 °C

10 °C

Ovest

25.9 Km/h

Dew point -9 °C

Umidità 28 %

Visibilità  10 Km

Il sole sorge alle ore 07:44

Il sole tramonta alle ore 17:18

Data e Ora Cielo e Fenomeni T °C DP °C Um. % Pres. hPa Vis. km Vento km/h
Oggi h: 16:50 sereno Sereno 8 -9 28 1015 10 O 25.9
Oggi h: 16:20 sereno Sereno 9 -9 26 1015 10 O 24
Oggi h: 15:50 sereno Sereno 10 -9 25 1015 10 NO 14.8
Oggi h: 15:20 sereno Sereno 10 -4 36 1015 10 N 5.5
Oggi h: 14:50 sereno Sereno 9 -3 42 1015 10 SE 11.1
Oggi h: 14:20 sereno Sereno 9 -3 42 1015 10 E/SE 11.1
Oggi h: 13:50 sereno Sereno 9 -4 39 1015 10 E/SE 9.3
Oggi h: 13:20 sereno Sereno 8 -4 42 1015 10 N 3.7
Oggi h: 12:50 sereno Sereno 7 -5 42 1015 10 N 5.5
Oggi h: 12:20 sereno Sereno 6 -4 48 1016 10 S/SO 9.3
Oggi h: 11:50 sereno Sereno 5 -5 48 1016 10 N 5.5
Oggi h: 11:20 sereno Sereno 5 -5 48 1016 10 N 5.5
Oggi h: 10:50 sereno Sereno 5 -5 48 1016 10 N 5.5
Oggi h: 10:20 sereno Sereno 4 -5 51 1016 10 N 3.7
Oggi h: 09:50 sereno Sereno 2 -3 69 1015 10 N 3.7
Oggi h: 09:20 sereno Sereno 0 -4 74 1015 10 N 5.5
Oggi h: 08:50 sereno Sereno -1 -5 74 1014 10 N 1.8
Oggi h: 08:20 sereno Sereno -2 -7 68 1014 10 N 7.4
Oggi h: 07:50 sereno Sereno -3 -8 68 1014 10 N 5.5
Oggi h: 07:20 sereno Sereno -2 -7 68 1013 10 N 5.5
Oggi h: 06:50 sereno Sereno -4 -8 73 1013 10 O/NO 11.1
Oggi h: 06:20 sereno Sereno -2 -8 63 1013 10 N/NO 7.4
Oggi h: 05:50 sereno Sereno -3 -8 68 1012 10 N/NO 9.3
Oggi h: 05:20 sereno Sereno -3 -7 73 1012 10 O/NO 7.4
Oggi h: 04:50 sereno Sereno -4 -8 73 1011 10 O/NO 9.3
Oggi h: 04:20 sereno Sereno -3 -7 73 1011 10 N/NO 7.4
Oggi h: 03:50 sereno Sereno -4 -7 79 1011 10 N/NO 7.4
Oggi h: 03:20 sereno Sereno -1 -5 74 1010 10 N 7.4
Oggi h: 02:50 sereno Sereno -3 -6 79 1010 10 O 7.4
Oggi h: 02:20 sereno Sereno -2 -5 79 1010 10 N 5.5
Oggi h: 01:50 sereno Sereno -2 -6 73 1009 10 N 7.4
Oggi h: 01:20 sereno Sereno -0 -4 74 1009 10 N 9.3
Oggi h: 00:50 sereno Sereno -1 -4 80 1008 10 N 7.4
Oggi h: 00:20 sereno Sereno 0 -4 74 1008 10 N 7.4
Ieri h: 23:50 sereno Sereno 0 -4 74 1008 10 N 9.3
Ieri h: 23:20 sereno Sereno -0 -4 74 1007 10 N 9.3
Ieri h: 22:50 sereno Sereno 0 -3 80 1007 10 N 11.1
Ieri h: 22:20 sereno Sereno 1 -3 74 1007 10 N 9.3
Ieri h: 21:50 sereno Sereno -1 -2 92 1006 10 N 11.1
Ieri h: 21:20 sereno Sereno -0 -2 86 1006 10 N 5.5
Ieri h: 20:50 sereno Sereno -1 -2 92 1005 10 N 1.8
Ieri h: 20:20 poco_nuvoloso Poco Nuvoloso 1 -1 86 1005 10 N 3.7
Ieri h: 19:50 poco_nuvoloso Poco Nuvoloso 2 -1 80 1005 10 N 3.7
Ieri h: 19:20 poco_nuvoloso Poco Nuvoloso 2 -2 74 1004 10 N 3.7
Ieri h: 18:50 poco_nuvoloso Poco Nuvoloso 2 -2 74 1004 10 O/SO 13
Ieri h: 18:20 sereno Sereno 2 -2 74 1004 10 N 3.7
Ieri h: 17:50 sereno Sereno 3 -1 74 1003 10 O/SO 7.4
Ieri h: 17:20 sereno Sereno 3 -1 74 1003 10 N 1.8
Ieri h: 16:50 sereno Sereno 4 -1 69 1003 10 O 9.3